Hauptseite
METAR-TAF:

METAR-TAF

Flughäfen :

Militärflugplatz Cameri

Novara, Italien

Breite: 45-31N, Länge: 008-40E, Höhe: 178 m

Beobachtung

Neuester Wetterbericht von vor 19 Stunden und 36 Minuten, um 08:55 UTC
Wind 2 kt aus unterschiedlichen Richtungen
Temperatur 6°C
Luftfeuchtigkeit 75%
Luftdruck 1032 hPa
Sichtweite: 5000 m
feuchter Dunst

METAR: LIMN 160855Z VRB02KT 5000 BR NSC 06/02 Q1032 RMK SKC VIS MIN 5000 WHT

Zeit: 05:31 (04:31 UTC)

Prognose

Neuester Wetterbericht von vor 20 Stunden und 31 Minuten, um 08:00 UTC
Gültige Prognose vom 16 um 09 UTC bis 16 um 18 UTC
Wind 4 kt aus Nord/Nordwest
Sichtweite 10 km oder mehr
keine Wolken unter 1500 m und keine Kumulonimbus oder Gewitterwolken
Zeitweise
vom 16 um 09 UTC bis 16 um 11 UTC
Sichtweite: 5000 m
feuchter Dunst

TAF: LIMN 160800Z 1609/1618 33004KT CAVOK TEMPO 1609/1611 5000 BR

Wetterbeobachtungen und Prognosen von mehr als 4000 Flughäfen (METAR und TAF Bericht).

Die verfügbaren Stationen werden durch gelbe und rote Markierungen auf der Karte dargestellt.

Führen Sie die Maus auf sie, um den Namen der Station zu sehen.

Darauf klicken, um die Beobachtung von Wetterbeobachtungen und Prognosen zu sehen.

Um die Karte zu ändern : klicken Sie auf den grünen Tasten mit einem schwarzen Kreuz Zum Vergrößern, auf den grünen Button mit einem Gedankenstrich zu verkleinern, oder auf die grünen Pfeile für benachbarte Karten.


METAR-TAF: